createdAt,value
2017-09-22T00:00:09.539Z,0
2017-09-22T00:01:18.404Z,0
2017-09-22T00:02:27.273Z,0
2017-09-22T00:03:35.816Z,0
2017-09-22T00:04:45.011Z,0
2017-09-22T00:05:53.875Z,0
2017-09-22T00:07:03.068Z,0
2017-09-22T00:08:11.932Z,0
2017-09-22T00:09:21.129Z,0
2017-09-22T00:10:29.999Z,0
2017-09-22T00:11:38.863Z,0
2017-09-22T00:12:47.729Z,0
2017-09-22T00:13:56.593Z,0
2017-09-22T00:15:05.453Z,0
2017-09-22T00:16:14.317Z,0
2017-09-22T00:17:23.183Z,0
2017-09-22T00:18:32.051Z,0
2017-09-22T00:19:40.922Z,0
2017-09-22T00:20:49.785Z,0
2017-09-22T00:21:58.651Z,0
2017-09-22T00:23:07.191Z,0
2017-09-22T00:24:16.379Z,0
2017-09-22T00:25:25.246Z,0
2017-09-22T00:26:34.433Z,0
2017-09-22T00:27:43.772Z,0
2017-09-22T00:28:52.647Z,0
2017-09-22T00:30:01.516Z,0
2017-09-22T00:31:10.379Z,0
2017-09-22T00:32:19.565Z,0
2017-09-22T00:33:28.430Z,0
2017-09-22T00:34:37.295Z,0
2017-09-22T00:35:45.837Z,0
2017-09-22T00:36:54.703Z,0
2017-09-22T00:38:03.248Z,0
2017-09-22T00:39:12.113Z,0
2017-09-22T00:40:20.984Z,0
2017-09-22T00:41:29.849Z,0
2017-09-22T00:42:39.363Z,0
2017-09-22T00:43:47.905Z,0
2017-09-22T00:44:57.392Z,0
2017-09-22T00:46:05.954Z,0
2017-09-22T00:47:14.485Z,0
2017-09-22T00:48:23.354Z,0
2017-09-22T00:49:31.897Z,0
2017-09-22T00:50:40.443Z,0
2017-09-22T00:51:48.984Z,0
2017-09-22T00:52:58.498Z,0
2017-09-22T00:54:07.360Z,0
2017-09-22T00:55:16.221Z,0
2017-09-22T00:56:25.088Z,0
2017-09-22T00:57:33.631Z,0
2017-09-22T00:58:42.175Z,0
2017-09-22T00:59:50.717Z,0
2017-09-22T01:00:59.261Z,0
2017-09-22T01:02:08.232Z,0
2017-09-22T01:03:17.109Z,0
2017-09-22T01:04:26.295Z,0
2017-09-22T01:05:35.159Z,0
2017-09-22T01:06:44.029Z,0
2017-09-22T01:07:52.901Z,0
2017-09-22T01:09:02.087Z,0
2017-09-22T01:10:10.628Z,0
2017-09-22T01:11:19.489Z,0
2017-09-22T01:12:28.354Z,0
2017-09-22T01:13:36.897Z,0
2017-09-22T01:14:45.442Z,0
2017-09-22T01:15:54.648Z,0
2017-09-22T01:17:03.192Z,0
2017-09-22T01:18:12.055Z,0
2017-09-22T01:19:20.921Z,0
2017-09-22T01:20:29.789Z,0
2017-09-22T01:21:38.331Z,0
2017-09-22T01:22:46.872Z,0
2017-09-22T01:23:56.074Z,0
2017-09-22T01:25:05.270Z,0
2017-09-22T01:26:14.132Z,0
2017-09-22T01:27:23.044Z,0
2017-09-22T01:28:31.585Z,0
2017-09-22T01:29:40.125Z,0
2017-09-22T01:30:48.672Z,0
2017-09-22T01:31:57.225Z,0
2017-09-22T01:33:05.768Z,0
2017-09-22T01:34:14.631Z,0
2017-09-22T01:35:23.814Z,0
2017-09-22T01:36:33.075Z,0
2017-09-22T01:37:41.941Z,0
2017-09-22T01:38:50.496Z,0
2017-09-22T01:39:59.723Z,0
2017-09-22T01:41:08.915Z,0
2017-09-22T01:42:17.779Z,0
2017-09-22T01:43:26.648Z,0
2017-09-22T01:44:35.190Z,0
2017-09-22T01:45:43.738Z,0
2017-09-22T01:46:52.603Z,0
2017-09-22T01:48:01.467Z,0
2017-09-22T01:49:10.013Z,0
2017-09-22T01:50:18.552Z,0
2017-09-22T01:51:27.742Z,0
2017-09-22T01:52:36.934Z,0
2017-09-22T01:53:45.473Z,0
2017-09-22T01:54:54.659Z,0
2017-09-22T01:56:03.203Z,0
2017-09-22T01:57:12.062Z,0
2017-09-22T01:58:21.579Z,0
2017-09-22T01:59:30.485Z,0
2017-09-22T02:00:39.347Z,0
2017-09-22T02:01:48.213Z,0
2017-09-22T02:02:56.756Z,0
2017-09-22T02:04:05.953Z,0
2017-09-22T02:05:15.136Z,0
2017-09-22T02:06:24.003Z,0
2017-09-22T02:07:32.870Z,0
2017-09-22T02:08:41.418Z,0
2017-09-22T02:09:49.960Z,0
2017-09-22T02:10:58.548Z,0
2017-09-22T02:12:07.088Z,0
2017-09-22T02:13:15.954Z,0
2017-09-22T02:14:24.496Z,0
2017-09-22T02:15:33.362Z,0
2017-09-22T02:16:42.230Z,0
2017-09-22T02:17:50.771Z,0
2017-09-22T02:18:59.309Z,0
2017-09-22T02:20:07.852Z,0
2017-09-22T02:21:16.392Z,0
2017-09-22T02:22:25.256Z,0
2017-09-22T02:23:34.118Z,0
2017-09-22T02:24:42.997Z,0
2017-09-22T02:25:51.862Z,0
2017-09-22T02:27:00.402Z,0
2017-09-22T02:28:09.270Z,0
2017-09-22T02:29:18.141Z,0
2017-09-22T02:30:27.325Z,0
2017-09-22T02:31:36.510Z,0
2017-09-22T02:32:45.389Z,0
2017-09-22T02:33:54.257Z,0
2017-09-22T02:35:02.803Z,0
2017-09-22T02:36:11.672Z,0
2017-09-22T02:37:20.863Z,0
2017-09-22T02:38:29.729Z,0
2017-09-22T02:39:38.589Z,0
2017-09-22T02:40:47.451Z,0
2017-09-22T02:41:56.322Z,0
2017-09-22T02:43:04.864Z,0
2017-09-22T02:44:13.407Z,0
2017-09-22T02:45:22.270Z,0
2017-09-22T02:46:31.142Z,0
2017-09-22T02:47:40.005Z,0
2017-09-22T02:48:48.878Z,0
2017-09-22T02:49:58.080Z,0
2017-09-22T02:51:07.264Z,0
2017-09-22T02:52:15.806Z,0
2017-09-22T02:53:24.346Z,0
2017-09-22T02:54:33.214Z,0
2017-09-22T02:55:42.196Z,0
2017-09-22T02:56:50.739Z,0
2017-09-22T02:57:59.281Z,0
2017-09-22T02:59:07.823Z,0
2017-09-22T03:00:16.368Z,0
2017-09-22T03:01:24.907Z,0
2017-09-22T03:02:33.769Z,0
2017-09-22T03:03:42.318Z,0
2017-09-22T03:04:50.858Z,0
2017-09-22T03:05:59.401Z,0
2017-09-22T03:07:07.947Z,0
2017-09-22T03:08:16.488Z,0
2017-09-22T03:09:25.028Z,0
2017-09-22T03:10:33.891Z,0
2017-09-22T03:11:42.757Z,0
2017-09-22T03:12:51.301Z,0
2017-09-22T03:14:00.164Z,0
2017-09-22T03:15:09.346Z,0
2017-09-22T03:16:17.888Z,0
2017-09-22T03:17:26.754Z,0
2017-09-22T03:18:35.296Z,0
2017-09-22T03:19:43.840Z,0
2017-09-22T03:20:52.729Z,0
2017-09-22T03:22:01.272Z,0
2017-09-22T03:23:09.812Z,0
2017-09-22T03:24:18.504Z,0
2017-09-22T03:25:27.042Z,0
2017-09-22T03:26:36.270Z,0
2017-09-22T03:27:44.810Z,0
2017-09-22T03:28:53.678Z,0
2017-09-22T03:30:02.221Z,0
2017-09-22T03:31:10.764Z,0
2017-09-22T03:32:19.303Z,0
2017-09-22T03:33:28.492Z,0
2017-09-22T03:34:37.036Z,0
2017-09-22T03:35:46.228Z,0
2017-09-22T03:36:54.772Z,0
2017-09-22T03:38:03.959Z,0
2017-09-22T03:39:12.824Z,0
2017-09-22T03:40:22.009Z,0
2017-09-22T03:41:30.553Z,0
2017-09-22T03:42:39.421Z,0
2017-09-22T03:43:48.287Z,0
2017-09-22T03:44:57.150Z,0
2017-09-22T03:46:06.013Z,0
2017-09-22T03:47:14.557Z,0
2017-09-22T03:48:23.422Z,0
2017-09-22T03:49:31.965Z,0
2017-09-22T03:50:41.474Z,0
2017-09-22T03:51:50.336Z,0
2017-09-22T03:52:59.521Z,0
2017-09-22T03:54:08.060Z,0
2017-09-22T03:55:17.244Z,0
2017-09-22T03:56:25.784Z,0
2017-09-22T03:57:34.322Z,0
2017-09-22T03:58:43.185Z,0
2017-09-22T03:59:51.735Z,0
2017-09-22T04:01:00.273Z,0
2017-09-22T04:02:09.656Z,0
2017-09-22T04:03:18.846Z,0
2017-09-22T04:04:28.041Z,0
2017-09-22T04:05:37.236Z,0
2017-09-22T04:06:45.776Z,0
2017-09-22T04:07:54.322Z,0
2017-09-22T04:09:03.187Z,0
2017-09-22T04:10:12.051Z,0
2017-09-22T04:11:20.681Z,0
2017-09-22T04:12:29.430Z,0
2017-09-22T04:13:38.362Z,0
2017-09-22T04:14:47.227Z,0
2017-09-22T04:15:56.092Z,0
2017-09-22T04:17:04.960Z,0
2017-09-22T04:18:13.501Z,0
2017-09-22T04:19:22.044Z,0
2017-09-22T04:20:30.910Z,0
2017-09-22T04:21:39.457Z,0
2017-09-22T04:22:48.012Z,0
2017-09-22T04:23:56.878Z,0
2017-09-22T04:25:05.742Z,0
2017-09-22T04:26:14.605Z,0
2017-09-22T04:27:23.527Z,0
2017-09-22T04:28:32.718Z,0
2017-09-22T04:29:41.589Z,0
2017-09-22T04:30:50.773Z,0
2017-09-22T04:31:59.313Z,0
2017-09-22T04:33:07.864Z,0
2017-09-22T04:34:16.397Z,0
2017-09-22T04:35:25.364Z,0
2017-09-22T04:36:34.229Z,0
2017-09-22T04:37:43.097Z,0
2017-09-22T04:38:51.638Z,0
2017-09-22T04:40:00.862Z,0
2017-09-22T04:41:09.726Z,0
2017-09-22T04:42:18.269Z,0
2017-09-22T04:43:27.137Z,0
2017-09-22T04:44:35.676Z,0
2017-09-22T04:45:44.861Z,0
2017-09-22T04:46:53.727Z,0
2017-09-22T04:48:02.271Z,0
2017-09-22T04:49:11.142Z,0
2017-09-22T04:50:20.013Z,4
2017-09-22T04:51:28.557Z,4
2017-09-22T04:52:37.098Z,4
2017-09-22T04:53:45.960Z,4
2017-09-22T04:54:54.498Z,4
2017-09-22T04:56:03.038Z,8
2017-09-22T04:57:11.908Z,8
2017-09-22T04:58:21.096Z,8
2017-09-22T04:59:29.959Z,8
2017-09-22T05:00:38.827Z,12
2017-09-22T05:01:48.016Z,16
2017-09-22T05:02:57.203Z,20
2017-09-22T05:04:06.066Z,20
2017-09-22T05:05:14.606Z,28
2017-09-22T05:06:23.155Z,32
2017-09-22T05:07:31.697Z,36
2017-09-22T05:08:40.241Z,40
2017-09-22T05:09:48.785Z,52
2017-09-22T05:10:57.331Z,56
2017-09-22T05:12:06.225Z,68
2017-09-22T05:13:14.736Z,76
2017-09-22T05:14:23.274Z,92
2017-09-22T05:15:32.140Z,104
2017-09-22T05:16:41.005Z,116
2017-09-22T05:17:50.189Z,132
2017-09-22T05:18:59.053Z,148
2017-09-22T05:20:07.596Z,168
2017-09-22T05:21:16.461Z,184
2017-09-22T05:22:25.006Z,204
2017-09-22T05:23:33.868Z,228
2017-09-22T05:24:43.079Z,248
2017-09-22T05:25:51.622Z,272
2017-09-22T05:27:00.485Z,292
2017-09-22T05:28:09.349Z,324
2017-09-22T05:29:18.285Z,348
2017-09-22T05:30:26.829Z,376
2017-09-22T05:31:36.024Z,404
2017-09-22T05:32:44.907Z,432
2017-09-22T05:33:54.128Z,456
2017-09-22T05:35:02.707Z,476
2017-09-22T05:36:11.576Z,500
2017-09-22T05:37:20.247Z,532
2017-09-22T05:38:29.436Z,560
2017-09-22T05:39:37.977Z,592
2017-09-22T05:40:47.245Z,624
2017-09-22T05:41:56.119Z,652
2017-09-22T05:43:05.005Z,688
2017-09-22T05:44:13.549Z,720
2017-09-22T05:45:22.089Z,752
2017-09-22T05:46:30.648Z,788
2017-09-22T05:47:39.441Z,828
2017-09-22T05:48:48.364Z,856
2017-09-22T05:49:57.515Z,888
2017-09-22T05:51:06.381Z,916
2017-09-22T05:52:14.922Z,956
2017-09-22T05:53:23.786Z,1000
2017-09-22T05:54:32.653Z,1056
2017-09-22T05:55:41.523Z,1100
2017-09-22T05:56:50.063Z,1124
2017-09-22T05:57:58.927Z,1128
2017-09-22T05:59:07.793Z,1136
2017-09-22T06:00:16.336Z,1140
2017-09-22T06:01:25.201Z,1156
2017-09-22T06:02:34.064Z,1176
2017-09-22T06:03:42.929Z,1196
2017-09-22T06:04:52.121Z,1232
2017-09-22T06:06:01.632Z,1284
2017-09-22T06:07:10.503Z,1356
2017-09-22T06:08:20.014Z,1456
2017-09-22T06:09:28.882Z,1548
2017-09-22T06:10:38.410Z,1648
2017-09-22T06:11:46.948Z,1724
2017-09-22T06:12:55.810Z,1784
2017-09-22T06:14:04.352Z,1828
2017-09-22T06:15:13.863Z,1876
2017-09-22T06:16:23.051Z,1880
2017-09-22T06:17:32.237Z,1856
2017-09-22T06:18:40.778Z,1900
2017-09-22T06:19:49.644Z,2020
2017-09-22T06:20:58.511Z,2128
2017-09-22T06:22:07.376Z,2196
2017-09-22T06:23:15.921Z,2296
2017-09-22T06:24:24.792Z,2380
2017-09-22T06:25:33.657Z,2432
2017-09-22T06:26:42.524Z,2448
2017-09-22T06:27:51.069Z,2428
2017-09-22T06:28:59.936Z,2488
2017-09-22T06:30:08.480Z,2624
2017-09-22T06:31:17.668Z,2708
2017-09-22T06:32:26.209Z,2764
2017-09-22T06:33:35.076Z,2820
2017-09-22T06:34:43.616Z,2864
2017-09-22T06:35:52.156Z,2904
2017-09-22T06:37:00.699Z,2940
2017-09-22T06:38:09.952Z,2900
2017-09-22T06:39:18.819Z,2796
2017-09-22T06:40:27.686Z,2732
2017-09-22T06:41:36.230Z,2752
2017-09-22T06:42:44.776Z,2820
2017-09-22T06:43:53.319Z,2916
2017-09-22T06:45:01.862Z,3028
2017-09-22T06:46:10.726Z,3116
2017-09-22T06:47:19.913Z,3208
2017-09-22T06:48:28.452Z,3260
2017-09-22T06:49:37.818Z,3268
2017-09-22T06:50:46.581Z,3248
2017-09-22T06:51:55.128Z,3252
2017-09-22T06:53:04.357Z,3280
2017-09-22T06:54:12.901Z,3244
2017-09-22T06:55:21.767Z,3184
2017-09-22T06:56:30.634Z,3164
2017-09-22T06:57:39.501Z,3192
2017-09-22T06:58:48.045Z,3244
2017-09-22T06:59:56.622Z,3256
2017-09-22T07:01:05.568Z,3188
2017-09-22T07:02:14.124Z,3048
2017-09-22T07:03:23.040Z,3072
2017-09-22T07:04:32.254Z,3204
2017-09-22T07:05:41.460Z,3284
2017-09-22T07:06:50.329Z,3336
2017-09-22T07:07:59.196Z,3360
2017-09-22T07:09:07.739Z,3356
2017-09-22T07:10:16.930Z,3332
2017-09-22T07:11:25.541Z,3228
2017-09-22T07:12:34.757Z,3148
2017-09-22T07:13:43.648Z,3376
2017-09-22T07:14:52.516Z,3692
2017-09-22T07:16:01.055Z,3836
2017-09-22T07:17:09.597Z,3924
2017-09-22T07:18:19.385Z,3984
2017-09-22T07:19:28.776Z,4004
2017-09-22T07:20:37.722Z,4000
2017-09-22T07:21:46.713Z,3984
2017-09-22T07:22:55.569Z,3912
2017-09-22T07:24:04.548Z,3948
2017-09-22T07:25:13.730Z,3940
2017-09-22T07:26:23.242Z,3976
2017-09-22T07:27:31.786Z,3968
2017-09-22T07:28:40.328Z,3896
2017-09-22T07:29:49.197Z,3756
2017-09-22T07:30:57.734Z,3492
2017-09-22T07:32:06.276Z,3568
2017-09-22T07:33:14.823Z,3916
2017-09-22T07:34:24.014Z,4224
2017-09-22T07:35:33.534Z,4328
2017-09-22T07:36:42.731Z,4284
2017-09-22T07:37:51.271Z,4172
2017-09-22T07:38:59.813Z,4280
2017-09-22T07:40:08.682Z,4448
2017-09-22T07:41:17.870Z,4828
2017-09-22T07:42:26.736Z,5120
2017-09-22T07:43:35.298Z,5128
2017-09-22T07:44:44.213Z,5032
2017-09-22T07:45:53.088Z,5116
2017-09-22T07:47:01.646Z,5280
2017-09-22T07:48:10.229Z,5132
2017-09-22T07:49:19.106Z,4848
2017-09-22T07:50:27.657Z,4832
2017-09-22T07:51:36.536Z,5148
2017-09-22T07:52:45.074Z,5660
2017-09-22T07:53:53.630Z,5768
2017-09-22T07:55:02.506Z,5592
2017-09-22T07:56:11.052Z,5788
2017-09-22T07:57:19.918Z,6440
2017-09-22T07:58:28.470Z,6960
2017-09-22T07:59:37.343Z,7104
2017-09-22T08:00:46.223Z,7076
2017-09-22T08:01:55.116Z,6912
2017-09-22T08:03:03.767Z,6772
2017-09-22T08:04:12.642Z,6808
2017-09-22T08:05:21.513Z,6980
2017-09-22T08:06:30.539Z,7016
2017-09-22T08:07:39.251Z,6972
2017-09-22T08:08:48.117Z,6604
2017-09-22T08:09:56.990Z,6204
2017-09-22T08:11:05.541Z,5960
2017-09-22T08:12:14.083Z,6220
2017-09-22T08:13:22.630Z,6436
2017-09-22T08:14:31.181Z,6324
2017-09-22T08:15:39.725Z,6032
2017-09-22T08:16:48.269Z,6008
2017-09-22T08:17:57.136Z,6220
2017-09-22T08:19:05.680Z,6320
2017-09-22T08:20:14.880Z,6184
2017-09-22T08:21:23.434Z,6080
2017-09-22T08:22:32.302Z,6400
2017-09-22T08:23:41.172Z,6812
2017-09-22T08:24:50.041Z,7200
2017-09-22T08:25:58.914Z,7320
2017-09-22T08:27:07.787Z,7360
2017-09-22T08:28:16.662Z,7568
2017-09-22T08:29:25.518Z,7732
2017-09-22T08:30:34.795Z,8060
2017-09-22T08:31:43.667Z,8232
2017-09-22T08:32:52.536Z,8152
2017-09-22T08:34:01.408Z,8156
2017-09-22T08:35:10.284Z,8068
2017-09-22T08:36:18.957Z,8104
2017-09-22T08:37:27.505Z,8248
2017-09-22T08:38:36.051Z,8432
2017-09-22T08:39:44.918Z,8748
2017-09-22T08:40:53.792Z,8896
2017-09-22T08:42:02.663Z,8872
2017-09-22T08:43:11.867Z,8576
2017-09-22T08:44:20.737Z,8544
2017-09-22T08:45:29.928Z,8564
2017-09-22T08:46:38.477Z,8648
2017-09-22T08:47:47.025Z,8896
2017-09-22T08:48:56.195Z,8928
2017-09-22T08:50:05.066Z,9240
2017-09-22T08:51:13.643Z,9124
2017-09-22T08:52:22.832Z,8924
2017-09-22T08:53:31.375Z,9000
2017-09-22T08:54:39.925Z,8600
2017-09-22T08:55:48.472Z,8576
2017-09-22T08:56:57.015Z,8580
2017-09-22T08:58:05.882Z,8508
2017-09-22T08:59:14.425Z,8412
2017-09-22T09:00:23.296Z,8320
2017-09-22T09:01:31.841Z,8284
2017-09-22T09:02:40.390Z,8284
2017-09-22T09:03:48.935Z,8328
2017-09-22T09:04:58.125Z,8428
2017-09-22T09:06:06.998Z,8560
2017-09-22T09:07:15.543Z,8672
2017-09-22T09:08:24.411Z,8728
2017-09-22T09:09:33.316Z,8752
2017-09-22T09:10:42.182Z,8752
2017-09-22T09:11:50.731Z,8792
2017-09-22T09:12:59.608Z,8840
2017-09-22T09:14:08.474Z,8860
2017-09-22T09:15:17.046Z,8872
2017-09-22T09:16:25.596Z,8856
2017-09-22T09:17:34.463Z,8848
2017-09-22T09:18:43.337Z,8896
2017-09-22T09:19:52.532Z,8992
2017-09-22T09:21:01.399Z,9116
2017-09-22T09:22:10.263Z,9232
2017-09-22T09:23:18.806Z,9308
2017-09-22T09:24:28.076Z,9392
2017-09-22T09:25:37.268Z,9484
2017-09-22T09:26:45.811Z,9648
2017-09-22T09:27:54.682Z,9744
2017-09-22T09:29:03.232Z,9784
2017-09-22T09:30:11.776Z,9780
2017-09-22T09:31:20.335Z,9732
2017-09-22T09:32:28.884Z,9628
2017-09-22T09:33:37.910Z,9476
2017-09-22T09:34:47.110Z,9300
2017-09-22T09:35:56.034Z,9160
2017-09-22T09:37:05.340Z,9064
2017-09-22T09:38:14.213Z,8996
2017-09-22T09:39:22.756Z,9016
2017-09-22T09:40:31.300Z,9124
2017-09-22T09:41:39.850Z,9260
2017-09-22T09:42:49.047Z,9352
2017-09-22T09:43:58.619Z,9408
2017-09-22T09:45:07.492Z,9464
2017-09-22T09:46:16.038Z,9480
2017-09-22T09:47:24.586Z,9488
2017-09-22T09:48:33.459Z,9488
2017-09-22T09:49:42.006Z,9540
2017-09-22T09:50:51.626Z,9620
2017-09-22T09:52:00.244Z,9704
2017-09-22T09:53:09.578Z,9796
2017-09-22T09:54:18.232Z,9872
2017-09-22T09:55:26.917Z,9948
2017-09-22T09:56:35.562Z,10052
2017-09-22T09:57:44.433Z,10192
2017-09-22T09:58:53.631Z,10344
2017-09-22T10:00:02.553Z,10468
2017-09-22T10:01:11.584Z,10560
2017-09-22T10:02:20.455Z,10572
2017-09-22T10:03:29.323Z,10536
2017-09-22T10:04:38.191Z,10424
2017-09-22T10:05:47.706Z,10412
2017-09-22T10:06:57.159Z,10292
2017-09-22T10:08:06.771Z,10296
2017-09-22T10:09:15.644Z,10336
2017-09-22T10:10:24.516Z,10348
2017-09-22T10:11:33.712Z,10448
2017-09-22T10:12:42.903Z,10512
2017-09-22T10:13:51.462Z,10488
2017-09-22T10:15:00.334Z,10452
2017-09-22T10:16:09.210Z,10436
2017-09-22T10:17:17.765Z,10400
2017-09-22T10:18:26.314Z,10400
2017-09-22T10:19:35.186Z,10416
2017-09-22T10:20:43.817Z,10420
2017-09-22T10:21:52.688Z,10392
2017-09-22T10:23:01.882Z,10420
2017-09-22T10:24:10.868Z,10396
2017-09-22T10:25:19.740Z,10384
2017-09-22T10:26:28.678Z,10396
2017-09-22T10:27:37.360Z,10388
2017-09-22T10:28:46.228Z,10352
2017-09-22T10:29:54.863Z,10320
2017-09-22T10:31:04.159Z,10288
2017-09-22T10:32:13.028Z,10252
2017-09-22T10:33:22.546Z,10204
2017-09-22T10:34:31.115Z,10136
2017-09-22T10:35:39.659Z,10068
2017-09-22T10:36:48.205Z,9980
2017-09-22T10:37:57.083Z,9900
2017-09-22T10:39:05.960Z,9860
2017-09-22T10:40:14.834Z,9804
2017-09-22T10:41:23.384Z,9756
2017-09-22T10:42:32.581Z,9724
2017-09-22T10:43:42.249Z,9716
2017-09-22T10:44:51.440Z,9712
2017-09-22T10:46:00.310Z,9684
2017-09-22T10:47:09.502Z,9632
2017-09-22T10:48:18.053Z,9580
2017-09-22T10:49:26.927Z,9536
2017-09-22T10:50:35.814Z,9512
2017-09-22T10:51:44.372Z,9480
2017-09-22T10:52:53.255Z,9448
2017-09-22T10:54:01.819Z,9352
2017-09-22T10:55:10.697Z,9228
2017-09-22T10:56:19.576Z,9080
2017-09-22T10:57:28.454Z,8976
2017-09-22T10:58:37.684Z,8876
2017-09-22T10:59:46.561Z,8812
2017-09-22T11:00:55.763Z,8812
2017-09-22T11:02:04.322Z,8836
2017-09-22T11:03:13.525Z,8840
2017-09-22T11:04:22.405Z,8696
2017-09-22T11:05:31.981Z,8648
2017-09-22T11:06:40.530Z,8584
2017-09-22T11:07:49.578Z,8580
2017-09-22T11:08:58.458Z,8548
2017-09-22T11:10:07.006Z,8496
2017-09-22T11:11:16.687Z,8448
2017-09-22T11:12:25.661Z,8372
2017-09-22T11:13:34.214Z,8216
2017-09-22T11:14:42.766Z,8088
2017-09-22T11:15:51.362Z,8084
2017-09-22T11:16:59.981Z,8132
2017-09-22T11:18:08.592Z,8412
2017-09-22T11:19:17.176Z,8512
2017-09-22T11:20:26.382Z,8804
2017-09-22T11:21:35.250Z,8852
2017-09-22T11:22:44.449Z,8748
2017-09-22T11:23:53.645Z,8772
2017-09-22T11:25:02.194Z,8824
2017-09-22T11:26:11.065Z,8740
2017-09-22T11:27:19.612Z,8744
2017-09-22T11:28:28.799Z,8840
2017-09-22T11:29:37.972Z,8856
2017-09-22T11:30:47.493Z,8964
2017-09-22T11:31:56.363Z,9180
2017-09-22T11:33:05.233Z,9420
2017-09-22T11:34:14.105Z,9588
2017-09-22T11:35:22.652Z,9732
2017-09-22T11:36:31.203Z,9756
2017-09-22T11:37:40.078Z,9588
2017-09-22T11:38:48.625Z,9332
2017-09-22T11:39:57.174Z,9100
2017-09-22T11:41:06.368Z,8752
2017-09-22T11:42:15.238Z,8492
2017-09-22T11:43:23.802Z,8152
2017-09-22T11:44:33.005Z,7788
2017-09-22T11:45:41.897Z,7452
2017-09-22T11:46:50.767Z,7256
2017-09-22T11:47:59.318Z,7496
2017-09-22T11:49:08.533Z,7580
2017-09-22T11:50:17.878Z,7604
2017-09-22T11:51:26.750Z,7996
2017-09-22T11:52:35.614Z,8096
2017-09-22T11:53:44.161Z,8232
2017-09-22T11:54:53.101Z,8440
2017-09-22T11:56:01.973Z,8616
2017-09-22T11:57:10.849Z,8736
2017-09-22T11:58:19.741Z,8740
2017-09-22T11:59:28.615Z,8748
2017-09-22T12:00:37.167Z,8804
2017-09-22T12:01:46.038Z,8904
2017-09-22T12:02:54.910Z,9048
2017-09-22T12:04:04.114Z,9328
2017-09-22T12:05:13.722Z,9676
2017-09-22T12:06:22.790Z,9856
2017-09-22T12:07:31.674Z,9872
2017-09-22T12:08:40.873Z,9960
2017-09-22T12:09:49.743Z,10112
2017-09-22T12:10:58.289Z,10172
2017-09-22T12:12:06.844Z,10052
2017-09-22T12:13:15.391Z,9896
2017-09-22T12:14:24.281Z,9748
2017-09-22T12:15:33.154Z,9652
2017-09-22T12:16:41.707Z,9624
2017-09-22T12:17:50.580Z,9740
2017-09-22T12:18:59.451Z,10200
2017-09-22T12:20:08.326Z,10384
2017-09-22T12:21:17.197Z,10560
2017-09-22T12:22:25.742Z,10680
2017-09-22T12:23:34.291Z,10808
2017-09-22T12:24:43.495Z,10800
2017-09-22T12:25:52.694Z,10856
2017-09-22T12:27:01.888Z,10760
2017-09-22T12:28:11.085Z,10676
2017-09-22T12:29:19.632Z,10628
2017-09-22T12:30:28.189Z,11240
2017-09-22T12:31:36.737Z,11628
2017-09-22T12:32:45.287Z,11680
2017-09-22T12:33:54.167Z,11484
2017-09-22T12:35:03.045Z,11344
2017-09-22T12:36:11.599Z,10984
2017-09-22T12:37:20.151Z,10660
2017-09-22T12:38:29.024Z,10280
2017-09-22T12:39:37.572Z,9900
2017-09-22T12:40:46.445Z,9780
2017-09-22T12:41:54.997Z,9456
2017-09-22T12:43:03.878Z,9264
2017-09-22T12:44:12.757Z,9640
2017-09-22T12:45:21.630Z,9712
2017-09-22T12:46:30.500Z,9800
2017-09-22T12:47:39.060Z,9868
2017-09-22T12:48:47.930Z,9764
2017-09-22T12:49:56.478Z,9764
2017-09-22T12:51:05.027Z,10120
2017-09-22T12:52:13.576Z,10180
2017-09-22T12:53:22.447Z,10452
2017-09-22T12:54:30.999Z,9788
2017-09-22T12:55:39.582Z,8780
2017-09-22T12:56:48.100Z,8128
2017-09-22T12:57:56.652Z,7380
2017-09-22T12:59:05.201Z,6628
2017-09-22T13:00:14.412Z,6172
2017-09-22T13:01:22.964Z,6212
2017-09-22T13:02:31.514Z,5504
2017-09-22T13:03:40.065Z,5124
2017-09-22T13:04:49.094Z,4912
2017-09-22T13:05:57.646Z,4708
2017-09-22T13:07:06.202Z,4504
2017-09-22T13:08:14.756Z,4480
2017-09-22T13:09:23.305Z,4612
2017-09-22T13:10:31.865Z,5012
2017-09-22T13:11:41.056Z,5340
2017-09-22T13:12:49.604Z,5304
2017-09-22T13:13:58.476Z,5380
2017-09-22T13:15:07.024Z,5312
2017-09-22T13:16:15.573Z,5192
2017-09-22T13:17:24.120Z,5388
2017-09-22T13:18:33.316Z,5620
2017-09-22T13:19:42.192Z,5016
2017-09-22T13:20:50.737Z,4876
2017-09-22T13:21:59.948Z,5024
2017-09-22T13:23:08.821Z,4852
2017-09-22T13:24:18.014Z,5212
2017-09-22T13:25:26.562Z,4960
2017-09-22T13:26:35.430Z,5208
2017-09-22T13:27:43.977Z,5772
2017-09-22T13:28:52.850Z,6396
2017-09-22T13:30:02.369Z,6888
2017-09-22T13:31:10.930Z,7008
2017-09-22T13:32:19.799Z,6972
2017-09-22T13:33:28.992Z,6912
2017-09-22T13:34:37.870Z,6940
2017-09-22T13:35:46.420Z,6912
2017-09-22T13:36:55.295Z,6908
2017-09-22T13:38:04.173Z,6936
2017-09-22T13:39:13.048Z,6900
2017-09-22T13:40:21.598Z,7148
2017-09-22T13:41:30.846Z,7100
2017-09-22T13:42:40.469Z,6972
2017-09-22T13:43:49.541Z,6580
2017-09-22T13:44:58.427Z,6100
2017-09-22T13:46:07.951Z,5724
2017-09-22T13:47:16.500Z,5380
2017-09-22T13:48:25.382Z,5120
2017-09-22T13:49:34.576Z,4872
2017-09-22T13:50:43.127Z,4700
2017-09-22T13:51:51.681Z,4508
2017-09-22T13:53:00.553Z,4280
2017-09-22T13:54:09.948Z,4040
2017-09-22T13:55:18.613Z,3788
2017-09-22T13:56:27.178Z,3460
2017-09-22T13:57:35.731Z,3348
2017-09-22T13:58:44.285Z,3436
2017-09-22T13:59:52.833Z,3608
2017-09-22T14:01:01.381Z,3656
2017-09-22T14:02:09.929Z,3828
2017-09-22T14:03:18.479Z,3520
2017-09-22T14:04:27.352Z,3500
2017-09-22T14:05:36.225Z,3448
2017-09-22T14:06:44.776Z,3376
2017-09-22T14:07:53.322Z,3596
2017-09-22T14:09:01.870Z,3792
2017-09-22T14:10:10.743Z,3580
2017-09-22T14:11:19.945Z,3892
2017-09-22T14:12:28.508Z,4020
2017-09-22T14:13:37.719Z,3948
2017-09-22T14:14:46.608Z,3992
2017-09-22T14:15:55.187Z,4140
2017-09-22T14:17:04.077Z,4368
2017-09-22T14:18:12.963Z,4632
2017-09-22T14:19:21.851Z,4860
2017-09-22T14:20:31.047Z,4940
2017-09-22T14:21:39.922Z,4888
2017-09-22T14:22:48.895Z,4864
2017-09-22T14:23:57.768Z,4928
2017-09-22T14:25:06.649Z,5144
2017-09-22T14:26:15.516Z,5524
2017-09-22T14:27:24.064Z,6088
2017-09-22T14:28:32.627Z,6396
2017-09-22T14:29:41.630Z,7124
2017-09-22T14:30:50.507Z,7908
2017-09-22T14:31:59.705Z,8252
2017-09-22T14:33:08.254Z,8656
2017-09-22T14:34:17.134Z,8956
2017-09-22T14:35:25.678Z,8980
2017-09-22T14:36:34.230Z,8864
2017-09-22T14:37:42.777Z,8860
2017-09-22T14:38:51.327Z,8604
2017-09-22T14:39:59.875Z,8448
2017-09-22T14:41:09.069Z,8448
2017-09-22T14:42:18.261Z,8556
2017-09-22T14:43:27.141Z,8360
2017-09-22T14:44:36.019Z,8276
2017-09-22T14:45:44.889Z,8180
2017-09-22T14:46:53.779Z,7884
2017-09-22T14:48:02.654Z,7464
2017-09-22T14:49:11.525Z,6996
2017-09-22T14:50:20.076Z,7120
2017-09-22T14:51:28.946Z,6732
2017-09-22T14:52:37.499Z,6220
2017-09-22T14:53:46.053Z,5824
2017-09-22T14:54:54.962Z,5456
2017-09-22T14:56:03.510Z,5080
2017-09-22T14:57:12.061Z,4956
2017-09-22T14:58:20.935Z,4928
2017-09-22T14:59:29.490Z,5004
2017-09-22T15:00:38.366Z,4632
2017-09-22T15:01:47.237Z,4280
2017-09-22T15:02:56.107Z,4692
2017-09-22T15:04:05.209Z,4356
2017-09-22T15:05:14.061Z,4252
2017-09-22T15:06:23.006Z,4460
2017-09-22T15:07:31.929Z,4344
2017-09-22T15:08:40.802Z,4112
2017-09-22T15:09:49.675Z,3640
2017-09-22T15:10:58.224Z,3208
2017-09-22T15:12:07.098Z,2860
2017-09-22T15:13:15.643Z,2688
2017-09-22T15:14:24.838Z,2644
2017-09-22T15:15:33.717Z,2736
2017-09-22T15:16:42.688Z,2932
2017-09-22T15:17:51.241Z,3332
2017-09-22T15:19:00.116Z,3852
2017-09-22T15:20:08.667Z,4476
2017-09-22T15:21:17.545Z,5040
2017-09-22T15:22:26.421Z,5704
2017-09-22T15:23:35.617Z,6312
2017-09-22T15:24:44.488Z,6788
2017-09-22T15:25:53.358Z,6912
2017-09-22T15:27:01.911Z,6560
2017-09-22T15:28:10.463Z,5820
2017-09-22T15:29:19.010Z,5212
2017-09-22T15:30:27.559Z,4772
2017-09-22T15:31:36.429Z,4272
2017-09-22T15:32:45.300Z,4016
2017-09-22T15:33:53.849Z,3996
2017-09-22T15:35:02.730Z,3828
2017-09-22T15:36:11.597Z,3784
2017-09-22T15:37:20.490Z,3952
2017-09-22T15:38:29.367Z,4084
2017-09-22T15:39:37.933Z,4172
2017-09-22T15:40:46.908Z,4168
2017-09-22T15:41:55.902Z,3996
2017-09-22T15:43:04.504Z,3824
2017-09-22T15:44:13.053Z,3648
2017-09-22T15:45:21.944Z,3472